sensor_id;sensor_type;location;lat;lon;timestamp;pressure;altitude;pressure_sealevel;temperature;humidity
82293;BME280;71892;14.836;105.234;2024-01-15T00:01:21;99867.53;;;18.81;nan
82293;BME280;71892;14.836;105.234;2024-01-15T00:03:48;99867.63;;;18.75;nan
82293;BME280;71892;14.836;105.234;2024-01-15T00:06:14;99872.97;;;18.76;nan
82293;BME280;71892;14.836;105.234;2024-01-15T00:08:41;99880.97;;;18.82;nan
82293;BME280;71892;14.836;105.234;2024-01-15T00:11:07;99891.63;;;18.88;nan
82293;BME280;71892;14.836;105.234;2024-01-15T00:13:34;99890.59;;;18.97;nan
82293;BME280;71892;14.836;105.234;2024-01-15T00:16:00;99893.03;;;19.10;nan
82293;BME280;71892;14.836;105.234;2024-01-15T00:20:52;99908.97;;;19.24;nan
82293;BME280;71892;14.836;105.234;2024-01-15T00:23:19;99915.00;;;19.37;nan
82293;BME280;71892;14.836;105.234;2024-01-15T00:25:45;99910.16;;;19.57;nan
82293;BME280;71892;14.836;105.234;2024-01-15T00:28:11;99911.66;;;19.72;nan
82293;BME280;71892;14.836;105.234;2024-01-15T00:30:38;99930.22;;;19.88;nan
82293;BME280;71892;14.836;105.234;2024-01-15T00:33:04;99930.03;;;19.98;nan
82293;BME280;71892;14.836;105.234;2024-01-15T00:35:31;99930.00;;;20.42;nan
82293;BME280;71892;14.836;105.234;2024-01-15T00:37:57;99936.72;;;21.00;nan
82293;BME280;71892;14.836;105.234;2024-01-15T00:40:24;99930.63;;;21.59;nan
82293;BME280;71892;14.836;105.234;2024-01-15T00:42:51;99902.31;;;22.03;nan
82293;BME280;71892;14.836;105.234;2024-01-15T00:45:17;99932.59;;;22.47;nan
82293;BME280;71892;14.836;105.234;2024-01-15T00:47:44;99929.56;;;22.58;nan
82293;BME280;71892;14.836;105.234;2024-01-15T00:50:10;99941.56;;;23.06;nan
82293;BME280;71892;14.836;105.234;2024-01-15T00:52:36;99939.66;;;23.34;nan
82293;BME280;71892;14.836;105.234;2024-01-15T00:55:03;99937.13;;;23.56;nan
82293;BME280;71892;14.836;105.234;2024-01-15T00:57:30;99944.88;;;23.92;nan
82293;BME280;71892;14.836;105.234;2024-01-15T00:59:56;99946.81;;;24.13;nan
82293;BME280;71892;14.836;105.234;2024-01-15T01:02:22;99952.09;;;24.16;nan
82293;BME280;71892;14.836;105.234;2024-01-15T01:04:49;99947.50;;;24.19;nan
82293;BME280;71892;14.836;105.234;2024-01-15T01:07:15;99952.00;;;23.96;nan
82293;BME280;71892;14.836;105.234;2024-01-15T01:09:42;99907.66;;;23.70;nan
82293;BME280;71892;14.836;105.234;2024-01-15T01:12:09;99958.03;;;23.79;nan
82293;BME280;71892;14.836;105.234;2024-01-15T01:14:36;99952.09;;;23.93;nan
82293;BME280;71892;14.836;105.234;2024-01-15T01:19:28;99961.44;;;24.34;nan
82293;BME280;71892;14.836;105.234;2024-01-15T01:21:56;99970.97;;;24.68;nan
82293;BME280;71892;14.836;105.234;2024-01-15T01:24:22;99954.59;;;25.35;nan
82293;BME280;71892;14.836;105.234;2024-01-15T01:26:49;99954.63;;;26.16;nan
82293;BME280;71892;14.836;105.234;2024-01-15T01:29:15;99948.66;;;27.03;nan
82293;BME280;71892;14.836;105.234;2024-01-15T01:31:45;99952.09;;;27.61;nan
82293;BME280;71892;14.836;105.234;2024-01-15T01:34:14;99958.50;;;27.95;nan
82293;BME280;71892;14.836;105.234;2024-01-15T01:36:42;99965.25;;;28.55;nan
82293;BME280;71892;14.836;105.234;2024-01-15T01:39:09;99962.91;;;29.12;nan
82293;BME280;71892;14.836;105.234;2024-01-15T01:41:35;99945.44;;;28.99;nan
82293;BME280;71892;14.836;105.234;2024-01-15T01:44:02;99970.50;;;29.22;nan
82293;BME280;71892;14.836;105.234;2024-01-15T01:46:29;99974.41;;;28.87;nan
82293;BME280;71892;14.836;105.234;2024-01-15T01:48:56;99958.31;;;28.97;nan
82293;BME280;71892;14.836;105.234;2024-01-15T01:53:49;99968.03;;;28.86;nan
82293;BME280;71892;14.836;105.234;2024-01-15T01:56:17;99947.28;;;28.98;nan
82293;BME280;71892;14.836;105.234;2024-01-15T01:58:44;99957.00;;;29.04;nan
82293;BME280;71892;14.836;105.234;2024-01-15T02:01:12;99952.31;;;29.21;nan
82293;BME280;71892;14.836;105.234;2024-01-15T02:03:40;99951.91;;;29.59;nan
82293;BME280;71892;14.836;105.234;2024-01-15T02:06:06;99876.50;;;29.82;nan
82293;BME280;71892;14.836;105.234;2024-01-15T02:08:33;99961.34;;;29.99;nan
82293;BME280;71892;14.836;105.234;2024-01-15T02:11:00;99946.81;;;30.69;nan
82293;BME280;71892;14.836;105.234;2024-01-15T02:13:27;99953.91;;;31.00;nan
82293;BME280;71892;14.836;105.234;2024-01-15T02:15:53;99953.16;;;30.70;nan
82293;BME280;71892;14.836;105.234;2024-01-15T02:18:19;99952.78;;;30.76;nan
82293;BME280;71892;14.836;105.234;2024-01-15T02:20:46;99959.34;;;30.45;nan
82293;BME280;71892;14.836;105.234;2024-01-15T02:23:14;99954.66;;;29.89;nan
82293;BME280;71892;14.836;105.234;2024-01-15T02:28:10;99947.50;;;30.73;nan
82293;BME280;71892;14.836;105.234;2024-01-15T02:30:38;99945.50;;;30.75;nan
82293;BME280;71892;14.836;105.234;2024-01-15T02:33:09;99949.16;;;31.30;nan
82293;BME280;71892;14.836;105.234;2024-01-15T02:35:36;99947.97;;;30.93;nan
82293;BME280;71892;14.836;105.234;2024-01-15T02:38:03;99952.59;;;30.50;nan
82293;BME280;71892;14.836;105.234;2024-01-15T02:40:30;99954.88;;;30.99;nan
82293;BME280;71892;14.836;105.234;2024-01-15T02:42:57;99949.88;;;31.46;nan
82293;BME280;71892;14.836;105.234;2024-01-15T02:45:23;99949.28;;;31.15;nan
82293;BME280;71892;14.836;105.234;2024-01-15T02:47:50;99928.94;;;31.31;nan
82293;BME280;71892;14.836;105.234;2024-01-15T02:50:16;99940.56;;;31.22;nan
82293;BME280;71892;14.836;105.234;2024-01-15T02:52:43;99958.47;;;31.55;nan
82293;BME280;71892;14.836;105.234;2024-01-15T02:55:09;99942.25;;;31.64;nan
82293;BME280;71892;14.836;105.234;2024-01-15T02:57:36;99939.81;;;31.60;nan
82293;BME280;71892;14.836;105.234;2024-01-15T03:02:29;99942.59;;;31.45;nan
82293;BME280;71892;14.836;105.234;2024-01-15T03:04:57;99932.16;;;30.97;nan
82293;BME280;71892;14.836;105.234;2024-01-15T03:07:24;99924.25;;;30.78;nan
82293;BME280;71892;14.836;105.234;2024-01-15T03:09:50;99932.16;;;30.12;nan
82293;BME280;71892;14.836;105.234;2024-01-15T03:12:16;99938.03;;;29.92;nan
82293;BME280;71892;14.836;105.234;2024-01-15T03:14:44;99929.63;;;30.09;nan
82293;BME280;71892;14.836;105.234;2024-01-15T03:17:10;99926.13;;;30.35;nan
82293;BME280;71892;14.836;105.234;2024-01-15T03:19:38;99917.78;;;30.65;nan
82293;BME280;71892;14.836;105.234;2024-01-15T03:22:04;99922.75;;;30.87;nan
82293;BME280;71892;14.836;105.234;2024-01-15T03:24:31;99915.69;;;31.24;nan
82293;BME280;71892;14.836;105.234;2024-01-15T03:26:58;99915.91;;;31.21;nan
82293;BME280;71892;14.836;105.234;2024-01-15T03:29:25;99907.22;;;31.54;nan
82293;BME280;71892;14.836;105.234;2024-01-15T03:31:52;99916.06;;;31.05;nan
82293;BME280;71892;14.836;105.234;2024-01-15T03:34:18;99906.19;;;31.42;nan
82293;BME280;71892;14.836;105.234;2024-01-15T03:36:45;99903.81;;;31.50;nan
82293;BME280;71892;14.836;105.234;2024-01-15T03:39:11;99909.38;;;30.95;nan
82293;BME280;71892;14.836;105.234;2024-01-15T03:41:38;99905.66;;;30.96;nan
82293;BME280;71892;14.836;105.234;2024-01-15T03:44:04;99904.06;;;31.33;nan
82293;BME280;71892;14.836;105.234;2024-01-15T03:46:30;99892.72;;;31.52;nan
82293;BME280;71892;14.836;105.234;2024-01-15T03:48:57;99880.25;;;31.85;nan
82293;BME280;71892;14.836;105.234;2024-01-15T03:51:25;99893.22;;;31.83;nan
82293;BME280;71892;14.836;105.234;2024-01-15T03:53:51;99885.09;;;31.95;nan
82293;BME280;71892;14.836;105.234;2024-01-15T03:56:17;99889.81;;;32.05;nan
82293;BME280;71892;14.836;105.234;2024-01-15T03:58:44;99882.22;;;31.83;nan
82293;BME280;71892;14.836;105.234;2024-01-15T04:01:10;99880.47;;;31.70;nan
82293;BME280;71892;14.836;105.234;2024-01-15T04:03:37;99871.09;;;31.33;nan
82293;BME280;71892;14.836;105.234;2024-01-15T04:06:04;99870.22;;;31.59;nan
82293;BME280;71892;14.836;105.234;2024-01-15T04:08:31;99855.41;;;32.00;nan
82293;BME280;71892;14.836;105.234;2024-01-15T04:10:57;99859.34;;;32.08;nan
82293;BME280;71892;14.836;105.234;2024-01-15T04:13:24;99808.94;;;32.20;nan
82293;BME280;71892;14.836;105.234;2024-01-15T04:15:51;99853.63;;;31.99;nan
82293;BME280;71892;14.836;105.234;2024-01-15T04:18:17;99839.53;;;32.28;nan
82293;BME280;71892;14.836;105.234;2024-01-15T04:20:44;99845.16;;;32.27;nan
82293;BME280;71892;14.836;105.234;2024-01-15T04:23:10;99838.13;;;32.10;nan
82293;BME280;71892;14.836;105.234;2024-01-15T04:25:37;99828.84;;;31.86;nan
82293;BME280;71892;14.836;105.234;2024-01-15T04:28:03;99827.44;;;31.80;nan
82293;BME280;71892;14.836;105.234;2024-01-15T04:30:30;99825.56;;;31.93;nan
82293;BME280;71892;14.836;105.234;2024-01-15T04:32:57;99819.53;;;32.14;nan
82293;BME280;71892;14.836;105.234;2024-01-15T04:35:23;99807.34;;;32.42;nan
82293;BME280;71892;14.836;105.234;2024-01-15T04:37:49;99812.47;;;32.22;nan
82293;BME280;71892;14.836;105.234;2024-01-15T04:40:16;99818.13;;;32.45;nan
82293;BME280;71892;14.836;105.234;2024-01-15T04:42:42;99798.06;;;32.55;nan
82293;BME280;71892;14.836;105.234;2024-01-15T04:45:11;99788.03;;;32.67;nan
82293;BME280;71892;14.836;105.234;2024-01-15T04:47:38;99784.50;;;32.89;nan
82293;BME280;71892;14.836;105.234;2024-01-15T04:50:04;99777.81;;;33.04;nan
82293;BME280;71892;14.836;105.234;2024-01-15T04:52:31;99745.72;;;32.92;nan
82293;BME280;71892;14.836;105.234;2024-01-15T04:54:58;99771.94;;;33.08;nan
82293;BME280;71892;14.836;105.234;2024-01-15T04:57:24;99770.50;;;32.68;nan
82293;BME280;71892;14.836;105.234;2024-01-15T04:59:50;99776.69;;;32.22;nan
82293;BME280;71892;14.836;105.234;2024-01-15T05:02:17;99757.56;;;32.45;nan
82293;BME280;71892;14.836;105.234;2024-01-15T05:04:43;99756.81;;;32.43;nan
82293;BME280;71892;14.836;105.234;2024-01-15T05:07:10;99758.19;;;32.85;nan
82293;BME280;71892;14.836;105.234;2024-01-15T05:09:36;99748.31;;;33.17;nan
82293;BME280;71892;14.836;105.234;2024-01-15T05:12:02;99742.97;;;32.92;nan
82293;BME280;71892;14.836;105.234;2024-01-15T05:14:29;99736.56;;;33.26;nan
82293;BME280;71892;14.836;105.234;2024-01-15T05:16:55;99735.47;;;33.29;nan
82293;BME280;71892;14.836;105.234;2024-01-15T05:19:22;99728.53;;;32.88;nan
82293;BME280;71892;14.836;105.234;2024-01-15T05:21:48;99714.88;;;33.22;nan
82293;BME280;71892;14.836;105.234;2024-01-15T05:24:14;99709.25;;;33.23;nan
82293;BME280;71892;14.836;105.234;2024-01-15T05:26:41;99698.63;;;33.52;nan
82293;BME280;71892;14.836;105.234;2024-01-15T05:31:33;99700.16;;;33.89;nan
82293;BME280;71892;14.836;105.234;2024-01-15T05:33:59;99691.91;;;33.67;nan
82293;BME280;71892;14.836;105.234;2024-01-15T05:36:26;99666.31;;;33.54;nan
82293;BME280;71892;14.836;105.234;2024-01-15T05:38:52;99676.38;;;33.09;nan
82293;BME280;71892;14.836;105.234;2024-01-15T05:41:19;99672.19;;;33.16;nan
82293;BME280;71892;14.836;105.234;2024-01-15T05:43:45;99661.69;;;32.97;nan
82293;BME280;71892;14.836;105.234;2024-01-15T05:46:12;99658.78;;;32.76;nan
82293;BME280;71892;14.836;105.234;2024-01-15T05:48:38;99652.56;;;33.08;nan
82293;BME280;71892;14.836;105.234;2024-01-15T05:51:05;99652.78;;;32.94;nan
82293;BME280;71892;14.836;105.234;2024-01-15T05:53:31;99637.97;;;33.18;nan
82293;BME280;71892;14.836;105.234;2024-01-15T05:55:57;99641.31;;;33.11;nan
82293;BME280;71892;14.836;105.234;2024-01-15T05:58:24;99605.31;;;32.79;nan
82293;BME280;71892;14.836;105.234;2024-01-15T06:00:50;99625.50;;;32.56;nan
82293;BME280;71892;14.836;105.234;2024-01-15T06:03:17;99613.84;;;32.52;nan
82293;BME280;71892;14.836;105.234;2024-01-15T06:05:43;99612.97;;;32.87;nan
82293;BME280;71892;14.836;105.234;2024-01-15T06:08:09;99610.28;;;32.74;nan
82293;BME280;71892;14.836;105.234;2024-01-15T06:10:36;99609.09;;;32.89;nan
82293;BME280;71892;14.836;105.234;2024-01-15T06:13:02;99603.75;;;32.64;nan
82293;BME280;71892;14.836;105.234;2024-01-15T06:15:29;99596.06;;;32.80;nan
82293;BME280;71892;14.836;105.234;2024-01-15T06:17:55;99593.72;;;33.09;nan
82293;BME280;71892;14.836;105.234;2024-01-15T06:20:21;99578.53;;;33.03;nan
82293;BME280;71892;14.836;105.234;2024-01-15T06:22:48;99572.28;;;33.12;nan
82293;BME280;71892;14.836;105.234;2024-01-15T06:25:14;99577.97;;;33.22;nan
82293;BME280;71892;14.836;105.234;2024-01-15T06:27:41;99569.94;;;33.52;nan
82293;BME280;71892;14.836;105.234;2024-01-15T06:30:07;99563.50;;;32.85;nan
82293;BME280;71892;14.836;105.234;2024-01-15T06:32:34;99563.53;;;32.50;nan
82293;BME280;71892;14.836;105.234;2024-01-15T06:35:01;99560.00;;;32.72;nan
82293;BME280;71892;14.836;105.234;2024-01-15T06:37:27;99561.78;;;32.95;nan
82293;BME280;71892;14.836;105.234;2024-01-15T06:39:53;99542.75;;;33.14;nan
82293;BME280;71892;14.836;105.234;2024-01-15T06:42:20;99541.88;;;32.92;nan
82293;BME280;71892;14.836;105.234;2024-01-15T06:44:47;99538.22;;;32.80;nan
82293;BME280;71892;14.836;105.234;2024-01-15T06:47:14;99544.47;;;32.71;nan
82293;BME280;71892;14.836;105.234;2024-01-15T06:49:40;99530.09;;;32.44;nan
82293;BME280;71892;14.836;105.234;2024-01-15T06:52:07;99528.72;;;32.49;nan
82293;BME280;71892;14.836;105.234;2024-01-15T06:54:33;99527.47;;;32.42;nan
82293;BME280;71892;14.836;105.234;2024-01-15T06:56:59;99527.72;;;32.50;nan
82293;BME280;71892;14.836;105.234;2024-01-15T06:59:26;99523.69;;;32.08;nan
82293;BME280;71892;14.836;105.234;2024-01-15T07:01:52;99518.59;;;31.91;nan
82293;BME280;71892;14.836;105.234;2024-01-15T07:04:18;99524.25;;;31.66;nan
82293;BME280;71892;14.836;105.234;2024-01-15T07:06:45;99509.56;;;31.78;nan
82293;BME280;71892;14.836;105.234;2024-01-15T07:09:11;99504.69;;;31.81;nan
82293;BME280;71892;14.836;105.234;2024-01-15T07:11:38;99509.31;;;31.81;nan
82293;BME280;71892;14.836;105.234;2024-01-15T07:14:04;99503.59;;;31.84;nan
82293;BME280;71892;14.836;105.234;2024-01-15T07:16:30;99506.91;;;32.35;nan
82293;BME280;71892;14.836;105.234;2024-01-15T07:18:57;99508.06;;;32.44;nan
82293;BME280;71892;14.836;105.234;2024-01-15T07:21:23;99497.31;;;32.41;nan
82293;BME280;71892;14.836;105.234;2024-01-15T07:23:50;99492.06;;;32.49;nan
82293;BME280;71892;14.836;105.234;2024-01-15T07:26:16;99493.25;;;32.80;nan
82293;BME280;71892;14.836;105.234;2024-01-15T07:28:42;99492.06;;;32.49;nan
82293;BME280;71892;14.836;105.234;2024-01-15T07:31:09;99488.44;;;32.59;nan
82293;BME280;71892;14.836;105.234;2024-01-15T07:33:35;99479.97;;;32.62;nan
82293;BME280;71892;14.836;105.234;2024-01-15T07:36:02;99481.94;;;32.60;nan
82293;BME280;71892;14.836;105.234;2024-01-15T07:38:28;99480.41;;;32.34;nan
82293;BME280;71892;14.836;105.234;2024-01-15T07:40:55;99466.38;;;32.26;nan
82293;BME280;71892;14.836;105.234;2024-01-15T07:43:22;99471.00;;;32.25;nan
82293;BME280;71892;14.836;105.234;2024-01-15T07:45:48;99464.91;;;32.33;nan
82293;BME280;71892;14.836;105.234;2024-01-15T07:48:14;99468.16;;;32.38;nan
82293;BME280;71892;14.836;105.234;2024-01-15T07:50:41;99457.59;;;32.21;nan
82293;BME280;71892;14.836;105.234;2024-01-15T07:53:07;99466.50;;;32.24;nan
82293;BME280;71892;14.836;105.234;2024-01-15T07:55:34;99466.63;;;32.34;nan
82293;BME280;71892;14.836;105.234;2024-01-15T07:58:00;99467.38;;;32.25;nan
82293;BME280;71892;14.836;105.234;2024-01-15T08:00:27;99461.09;;;32.12;nan
82293;BME280;71892;14.836;105.234;2024-01-15T08:02:54;99460.03;;;32.02;nan
82293;BME280;71892;14.836;105.234;2024-01-15T08:05:20;99453.28;;;32.06;nan
82293;BME280;71892;14.836;105.234;2024-01-15T08:07:47;99450.59;;;32.17;nan
82293;BME280;71892;14.836;105.234;2024-01-15T08:10:13;99456.97;;;32.17;nan
82293;BME280;71892;14.836;105.234;2024-01-15T08:12:40;99461.09;;;31.88;nan
82293;BME280;71892;14.836;105.234;2024-01-15T08:15:06;99455.19;;;31.81;nan
82293;BME280;71892;14.836;105.234;2024-01-15T08:17:33;99447.31;;;31.77;nan
82293;BME280;71892;14.836;105.234;2024-01-15T08:19:59;99453.47;;;31.80;nan
82293;BME280;71892;14.836;105.234;2024-01-15T08:22:27;99464.31;;;31.71;nan
82293;BME280;71892;14.836;105.234;2024-01-15T08:24:53;99456.91;;;31.71;nan
82293;BME280;71892;14.836;105.234;2024-01-15T08:27:21;99448.66;;;31.71;nan
82293;BME280;71892;14.836;105.234;2024-01-15T08:29:47;99444.53;;;31.66;nan
82293;BME280;71892;14.836;105.234;2024-01-15T08:32:13;99449.38;;;31.62;nan
82293;BME280;71892;14.836;105.234;2024-01-15T08:34:41;99444.13;;;31.59;nan
82293;BME280;71892;14.836;105.234;2024-01-15T08:37:08;99435.97;;;31.58;nan
82293;BME280;71892;14.836;105.234;2024-01-15T08:39:34;99442.41;;;31.45;nan
82293;BME280;71892;14.836;105.234;2024-01-15T08:42:05;99439.50;;;31.47;nan
82293;BME280;71892;14.836;105.234;2024-01-15T08:44:31;99450.28;;;31.26;nan
82293;BME280;71892;14.836;105.234;2024-01-15T08:46:58;99454.00;;;31.25;nan
82293;BME280;71892;14.836;105.234;2024-01-15T08:49:24;99462.94;;;31.16;nan
82293;BME280;71892;14.836;105.234;2024-01-15T08:51:51;99455.91;;;30.99;nan
82293;BME280;71892;14.836;105.234;2024-01-15T08:54:18;99451.88;;;30.92;nan
82293;BME280;71892;14.836;105.234;2024-01-15T08:56:44;99466.03;;;30.99;nan
82293;BME280;71892;14.836;105.234;2024-01-15T08:59:10;99476.13;;;30.98;nan
82293;BME280;71892;14.836;105.234;2024-01-15T09:01:38;99468.91;;;30.97;nan
82293;BME280;71892;14.836;105.234;2024-01-15T09:04:05;99461.25;;;31.02;nan
82293;BME280;71892;14.836;105.234;2024-01-15T09:06:32;99471.22;;;31.03;nan
82293;BME280;71892;14.836;105.234;2024-01-15T09:08:59;99478.59;;;31.03;nan
82293;BME280;71892;14.836;105.234;2024-01-15T09:11:26;99478.03;;;30.98;nan
82293;BME280;71892;14.836;105.234;2024-01-15T09:13:53;99474.41;;;30.97;nan
82293;BME280;71892;14.836;105.234;2024-01-15T09:16:19;99478.03;;;30.98;nan
82293;BME280;71892;14.836;105.234;2024-01-15T09:18:46;99474.16;;;31.00;nan
82293;BME280;71892;14.836;105.234;2024-01-15T09:21:12;99472.28;;;31.01;nan
82293;BME280;71892;14.836;105.234;2024-01-15T09:23:39;99483.06;;;31.04;nan
82293;BME280;71892;14.836;105.234;2024-01-15T09:26:08;99484.94;;;30.91;nan
82293;BME280;71892;14.836;105.234;2024-01-15T09:28:35;99495.47;;;30.97;nan
82293;BME280;71892;14.836;105.234;2024-01-15T09:31:01;99480.91;;;30.84;nan
82293;BME280;71892;14.836;105.234;2024-01-15T09:33:28;99477.59;;;30.91;nan
82293;BME280;71892;14.836;105.234;2024-01-15T09:35:54;99492.63;;;30.86;nan
82293;BME280;71892;14.836;105.234;2024-01-15T09:38:21;99487.59;;;30.80;nan
82293;BME280;71892;14.836;105.234;2024-01-15T09:40:47;99491.53;;;30.76;nan
82293;BME280;71892;14.836;105.234;2024-01-15T09:43:15;99461.25;;;30.64;nan
82293;BME280;71892;14.836;105.234;2024-01-15T09:45:42;99495.41;;;30.60;nan
82293;BME280;71892;14.836;105.234;2024-01-15T09:50:35;99478.34;;;30.43;nan
82293;BME280;71892;14.836;105.234;2024-01-15T09:53:03;99511.97;;;30.46;nan
82293;BME280;71892;14.836;105.234;2024-01-15T09:55:30;99504.16;;;30.40;nan
82293;BME280;71892;14.836;105.234;2024-01-15T09:58:00;99503.38;;;30.38;nan
82293;BME280;71892;14.836;105.234;2024-01-15T10:00:28;99502.94;;;30.32;nan
82293;BME280;71892;14.836;105.234;2024-01-15T10:02:56;99504.91;;;30.30;nan
82293;BME280;71892;14.836;105.234;2024-01-15T10:05:23;99506.41;;;30.21;nan
82293;BME280;71892;14.836;105.234;2024-01-15T10:07:51;99510.91;;;30.22;nan
82293;BME280;71892;14.836;105.234;2024-01-15T10:10:17;99503.56;;;30.10;nan
82293;BME280;71892;14.836;105.234;2024-01-15T10:12:44;99513.31;;;30.01;nan
82293;BME280;71892;14.836;105.234;2024-01-15T10:15:11;99519.31;;;29.94;nan
82293;BME280;71892;14.836;105.234;2024-01-15T10:17:39;99514.34;;;29.86;nan
82293;BME280;71892;14.836;105.234;2024-01-15T10:20:14;99522.97;;;29.80;nan
82293;BME280;71892;14.836;105.234;2024-01-15T10:22:42;99514.59;;;29.69;nan
82293;BME280;71892;14.836;105.234;2024-01-15T10:25:15;99523.97;;;29.52;nan
82293;BME280;71892;14.836;105.234;2024-01-15T10:27:42;99518.63;;;29.36;nan
82293;BME280;71892;14.836;105.234;2024-01-15T10:30:10;99459.81;;;29.28;nan
82293;BME280;71892;14.836;105.234;2024-01-15T10:32:37;99510.78;;;29.16;nan
82293;BME280;71892;14.836;105.234;2024-01-15T10:35:04;99532.22;;;29.10;nan
82293;BME280;71892;14.836;105.234;2024-01-15T10:37:36;99535.97;;;28.94;nan
82293;BME280;71892;14.836;105.234;2024-01-15T10:40:03;99535.56;;;28.86;nan
82293;BME280;71892;14.836;105.234;2024-01-15T10:44:58;99540.22;;;28.70;nan
82293;BME280;71892;14.836;105.234;2024-01-15T10:47:25;99550.56;;;28.51;nan
82293;BME280;71892;14.836;105.234;2024-01-15T10:49:52;99548.88;;;28.34;nan
82293;BME280;71892;14.836;105.234;2024-01-15T10:52:19;99550.19;;;28.27;nan
82293;BME280;71892;14.836;105.234;2024-01-15T10:54:46;99543.88;;;28.27;nan
82293;BME280;71892;14.836;105.234;2024-01-15T10:57:14;99549.44;;;28.25;nan
82293;BME280;71892;14.836;105.234;2024-01-15T11:02:08;99551.28;;;28.09;nan
82293;BME280;71892;14.836;105.234;2024-01-15T11:04:36;99541.88;;;27.99;nan
82293;BME280;71892;14.836;105.234;2024-01-15T11:07:03;99550.38;;;27.94;nan
82293;BME280;71892;14.836;105.234;2024-01-15T11:09:31;99557.69;;;27.94;nan
82293;BME280;71892;14.836;105.234;2024-01-15T11:14:44;99569.09;;;27.71;nan
82293;BME280;71892;14.836;105.234;2024-01-15T11:17:12;99564.16;;;27.77;nan
82293;BME280;71892;14.836;105.234;2024-01-15T11:19:45;99558.69;;;27.77;nan
82293;BME280;71892;14.836;105.234;2024-01-15T11:25:02;99572.56;;;27.58;nan
82293;BME280;71892;14.836;105.234;2024-01-15T11:27:45;99564.31;;;27.43;nan
82293;BME280;71892;14.836;105.234;2024-01-15T11:30:25;99559.75;;;27.28;nan
82293;BME280;71892;14.836;105.234;2024-01-15T11:32:51;99577.41;;;27.05;nan
82293;BME280;71892;14.836;105.234;2024-01-15T11:35:18;99574.41;;;26.76;nan
82293;BME280;71892;14.836;105.234;2024-01-15T11:40:18;99589.31;;;26.36;nan
82293;BME280;71892;14.836;105.234;2024-01-15T11:42:46;99588.97;;;26.25;nan
82293;BME280;71892;14.836;105.234;2024-01-15T11:45:19;99586.03;;;26.11;nan
82293;BME280;71892;14.836;105.234;2024-01-15T11:50:40;99580.72;;;25.91;nan
82293;BME280;71892;14.836;105.234;2024-01-15T11:53:17;99592.03;;;25.83;nan
82293;BME280;71892;14.836;105.234;2024-01-15T11:55:45;99585.44;;;25.70;nan
82293;BME280;71892;14.836;105.234;2024-01-15T11:58:12;99598.53;;;25.62;nan
82293;BME280;71892;14.836;105.234;2024-01-15T12:00:40;99571.72;;;25.53;nan
82293;BME280;71892;14.836;105.234;2024-01-15T12:03:09;99594.13;;;25.41;nan
82293;BME280;71892;14.836;105.234;2024-01-15T12:05:37;99595.53;;;25.31;nan
82293;BME280;71892;14.836;105.234;2024-01-15T12:08:04;99609.56;;;25.22;nan
82293;BME280;71892;14.836;105.234;2024-01-15T12:10:40;99605.22;;;25.18;nan
82293;BME280;71892;14.836;105.234;2024-01-15T12:13:14;99614.41;;;25.15;nan
82293;BME280;71892;14.836;105.234;2024-01-15T12:15:41;99603.81;;;25.09;nan
82293;BME280;71892;14.836;105.234;2024-01-15T12:18:09;99615.13;;;25.00;nan
82293;BME280;71892;14.836;105.234;2024-01-15T12:20:37;99613.78;;;24.90;nan
82293;BME280;71892;14.836;105.234;2024-01-15T12:23:04;99615.94;;;24.82;nan
82293;BME280;71892;14.836;105.234;2024-01-15T12:25:31;99615.50;;;24.72;nan
82293;BME280;71892;14.836;105.234;2024-01-15T12:30:26;99619.56;;;24.62;nan
82293;BME280;71892;14.836;105.234;2024-01-15T12:32:53;99623.38;;;24.58;nan
82293;BME280;71892;14.836;105.234;2024-01-15T12:35:20;99627.03;;;24.57;nan
82293;BME280;71892;14.836;105.234;2024-01-15T12:37:47;99627.94;;;24.57;nan
82293;BME280;71892;14.836;105.234;2024-01-15T12:40:20;99628.81;;;24.58;nan
82293;BME280;71892;14.836;105.234;2024-01-15T12:42:47;99633.53;;;24.54;nan
82293;BME280;71892;14.836;105.234;2024-01-15T12:45:14;99635.47;;;24.51;nan
82293;BME280;71892;14.836;105.234;2024-01-15T12:47:41;99631.13;;;24.47;nan
82293;BME280;71892;14.836;105.234;2024-01-15T12:50:09;99638.28;;;24.49;nan
82293;BME280;71892;14.836;105.234;2024-01-15T12:52:37;99638.66;;;24.60;nan
82293;BME280;71892;14.836;105.234;2024-01-15T12:55:08;99640.91;;;24.71;nan
82293;BME280;71892;14.836;105.234;2024-01-15T12:57:35;99642.69;;;24.72;nan
82293;BME280;71892;14.836;105.234;2024-01-15T13:00:05;99645.34;;;24.74;nan
82293;BME280;71892;14.836;105.234;2024-01-15T13:02:39;99648.19;;;24.71;nan
82293;BME280;71892;14.836;105.234;2024-01-15T13:05:09;99635.19;;;24.77;nan
82293;BME280;71892;14.836;105.234;2024-01-15T13:07:38;99653.19;;;24.80;nan
82293;BME280;71892;14.836;105.234;2024-01-15T13:10:06;99647.50;;;24.65;nan
82293;BME280;71892;14.836;105.234;2024-01-15T13:12:33;99599.13;;;24.53;nan
82293;BME280;71892;14.836;105.234;2024-01-15T13:15:00;99645.13;;;24.58;nan
82293;BME280;71892;14.836;105.234;2024-01-15T13:17:29;99640.44;;;24.61;nan
82293;BME280;71892;14.836;105.234;2024-01-15T13:19:56;99657.56;;;24.63;nan
82293;BME280;71892;14.836;105.234;2024-01-15T13:22:22;99651.72;;;24.52;nan
82293;BME280;71892;14.836;105.234;2024-01-15T13:24:50;99665.03;;;24.38;nan
82293;BME280;71892;14.836;105.234;2024-01-15T13:27:16;99673.13;;;24.40;nan
82293;BME280;71892;14.836;105.234;2024-01-15T13:29:43;99674.75;;;24.44;nan
82293;BME280;71892;14.836;105.234;2024-01-15T13:32:13;99692.28;;;24.57;nan
82293;BME280;71892;14.836;105.234;2024-01-15T13:34:42;99684.03;;;25.00;nan